sensor_id;sensor_type;location;lat;lon;timestamp;pressure;altitude;pressure_sealevel;temperature;humidity
48027;BME280;50714;49.208;5.364;2023-02-17T00:06:55;100339.13;;;9.59;97.90
48027;BME280;50714;49.208;5.364;2023-02-17T00:16:55;100342.84;;;9.58;98.26
48027;BME280;50714;49.208;5.364;2023-02-17T00:26:56;100343.84;;;9.57;98.85
48027;BME280;50714;49.208;5.364;2023-02-17T00:36:56;100343.00;;;9.56;99.00
48027;BME280;50714;49.208;5.364;2023-02-17T00:46:56;100342.00;;;9.57;99.44
48027;BME280;50714;49.208;5.364;2023-02-17T00:56:57;100342.16;;;9.56;99.88
48027;BME280;50714;49.208;5.364;2023-02-17T01:06:57;100334.09;;;9.56;100.00
48027;BME280;50714;49.208;5.364;2023-02-17T01:16:57;100321.97;;;9.52;100.00
48027;BME280;50714;49.208;5.364;2023-02-17T01:26:58;100332.75;;;9.52;100.00
48027;BME280;50714;49.208;5.364;2023-02-17T01:36:58;100321.31;;;9.50;100.00
48027;BME280;50714;49.208;5.364;2023-02-17T01:46:58;100323.34;;;9.48;100.00
48027;BME280;50714;49.208;5.364;2023-02-17T01:57:00;100322.31;;;9.49;100.00
48027;BME280;50714;49.208;5.364;2023-02-17T02:07:02;100295.56;;;9.47;100.00
48027;BME280;50714;49.208;5.364;2023-02-17T02:17:22;100285.78;;;9.46;100.00
48027;BME280;50714;49.208;5.364;2023-02-17T02:37:42;100275.56;;;9.42;100.00
48027;BME280;50714;49.208;5.364;2023-02-17T02:58:18;100251.16;;;9.43;100.00
48027;BME280;50714;49.208;5.364;2023-02-17T03:08:27;100239.16;;;9.46;100.00
48027;BME280;50714;49.208;5.364;2023-02-17T03:18:32;100253.28;;;9.48;100.00
48027;BME280;50714;49.208;5.364;2023-02-17T03:28:32;100245.03;;;9.49;100.00
48027;BME280;50714;49.208;5.364;2023-02-17T03:38:32;100257.97;;;9.54;100.00
48027;BME280;50714;49.208;5.364;2023-02-17T03:48:33;100258.47;;;9.57;100.00
48027;BME280;50714;49.208;5.364;2023-02-17T03:58:33;100255.59;;;9.59;100.00
48027;BME280;50714;49.208;5.364;2023-02-17T04:08:35;100268.06;;;9.60;100.00
48027;BME280;50714;49.208;5.364;2023-02-17T04:18:36;100269.91;;;9.60;100.00
48027;BME280;50714;49.208;5.364;2023-02-17T04:28:38;100285.72;;;9.63;100.00
48027;BME280;50714;49.208;5.364;2023-02-17T04:38:39;100283.50;;;9.66;100.00
48027;BME280;50714;49.208;5.364;2023-02-17T04:48:39;100288.34;;;9.71;100.00
48027;BME280;50714;49.208;5.364;2023-02-17T04:58:40;100295.41;;;9.72;100.00
48027;BME280;50714;49.208;5.364;2023-02-17T05:08:40;100313.09;;;9.74;100.00
48027;BME280;50714;49.208;5.364;2023-02-17T05:18:40;100303.81;;;9.77;100.00
48027;BME280;50714;49.208;5.364;2023-02-17T05:28:41;100303.63;;;9.78;100.00
48027;BME280;50714;49.208;5.364;2023-02-17T05:38:41;100296.22;;;9.80;100.00
48027;BME280;50714;49.208;5.364;2023-02-17T05:48:44;100308.69;;;9.81;100.00
48027;BME280;50714;49.208;5.364;2023-02-17T05:58:45;100317.44;;;9.83;100.00
48027;BME280;50714;49.208;5.364;2023-02-17T06:08:45;100321.81;;;9.84;100.00
48027;BME280;50714;49.208;5.364;2023-02-17T06:18:46;100337.81;;;9.86;100.00
48027;BME280;50714;49.208;5.364;2023-02-17T06:28:46;100335.94;;;9.86;100.00
48027;BME280;50714;49.208;5.364;2023-02-17T06:38:47;100360.22;;;9.86;100.00
48027;BME280;50714;49.208;5.364;2023-02-17T06:48:47;100354.47;;;9.89;100.00
48027;BME280;50714;49.208;5.364;2023-02-17T06:58:48;100359.19;;;9.87;100.00
48027;BME280;50714;49.208;5.364;2023-02-17T07:08:48;100364.41;;;9.89;100.00
48027;BME280;50714;49.208;5.364;2023-02-17T07:18:49;100367.94;;;9.89;100.00
48027;BME280;50714;49.208;5.364;2023-02-17T07:28:50;100382.91;;;9.92;100.00
48027;BME280;50714;49.208;5.364;2023-02-17T07:38:50;100383.56;;;9.94;100.00
48027;BME280;50714;49.208;5.364;2023-02-17T07:48:51;100402.94;;;9.98;100.00
48027;BME280;50714;49.208;5.364;2023-02-17T07:58:51;100399.88;;;10.01;100.00
48027;BME280;50714;49.208;5.364;2023-02-17T08:08:52;100392.78;;;10.08;100.00
48027;BME280;50714;49.208;5.364;2023-02-17T08:19:11;100395.78;;;10.13;100.00
48027;BME280;50714;49.208;5.364;2023-02-17T08:29:12;100398.31;;;10.14;100.00
48027;BME280;50714;49.208;5.364;2023-02-17T08:39:14;100412.25;;;10.18;100.00
48027;BME280;50714;49.208;5.364;2023-02-17T08:49:18;100414.78;;;10.19;100.00
48027;BME280;50714;49.208;5.364;2023-02-17T08:59:19;100419.00;;;10.22;100.00
48027;BME280;50714;49.208;5.364;2023-02-17T09:09:21;100417.97;;;10.23;100.00
48027;BME280;50714;49.208;5.364;2023-02-17T09:19:23;100406.31;;;10.31;100.00
48027;BME280;50714;49.208;5.364;2023-02-17T09:29:23;100416.50;;;10.43;100.00
48027;BME280;50714;49.208;5.364;2023-02-17T09:39:23;100425.56;;;10.50;100.00
48027;BME280;50714;49.208;5.364;2023-02-17T09:49:29;100423.81;;;10.57;100.00
48027;BME280;50714;49.208;5.364;2023-02-17T09:59:41;100420.75;;;10.61;100.00
48027;BME280;50714;49.208;5.364;2023-02-17T10:40:24;100463.13;;;10.60;100.00
48027;BME280;50714;49.208;5.364;2023-02-17T10:50:25;100451.22;;;10.69;100.00
48027;BME280;50714;49.208;5.364;2023-02-17T11:00:25;100446.28;;;10.73;100.00
48027;BME280;50714;49.208;5.364;2023-02-17T11:10:33;100451.56;;;10.89;100.00
48027;BME280;50714;49.208;5.364;2023-02-17T11:20:34;100442.00;;;11.01;100.00
48027;BME280;50714;49.208;5.364;2023-02-17T11:30:35;100459.88;;;11.02;100.00
48027;BME280;50714;49.208;5.364;2023-02-17T11:40:40;100450.22;;;11.08;100.00
48027;BME280;50714;49.208;5.364;2023-02-17T11:50:49;100441.19;;;11.15;100.00
48027;BME280;50714;49.208;5.364;2023-02-17T12:01:04;100441.41;;;11.28;100.00
48027;BME280;50714;49.208;5.364;2023-02-17T12:32:02;100417.44;;;11.84;100.00
48027;BME280;50714;49.208;5.364;2023-02-17T12:42:10;100438.50;;;11.89;100.00
48027;BME280;50714;49.208;5.364;2023-02-17T12:52:37;100431.81;;;11.85;100.00
48027;BME280;50714;49.208;5.364;2023-02-17T13:02:38;100439.25;;;11.68;100.00
48027;BME280;50714;49.208;5.364;2023-02-17T13:12:39;100441.38;;;11.58;100.00
48027;BME280;50714;49.208;5.364;2023-02-17T13:22:42;100431.81;;;11.55;100.00
48027;BME280;50714;49.208;5.364;2023-02-17T13:32:43;100436.66;;;11.45;100.00
48027;BME280;50714;49.208;5.364;2023-02-17T13:42:45;100433.00;;;11.38;100.00
48027;BME280;50714;49.208;5.364;2023-02-17T13:52:48;100436.06;;;11.35;100.00
48027;BME280;50714;49.208;5.364;2023-02-17T14:02:55;100431.31;;;11.37;100.00
48027;BME280;50714;49.208;5.364;2023-02-17T14:12:56;100414.28;;;11.37;100.00
48027;BME280;50714;49.208;5.364;2023-02-17T14:23:03;100406.63;;;11.40;100.00
48027;BME280;50714;49.208;5.364;2023-02-17T14:43:18;100411.84;;;11.42;100.00
48027;BME280;50714;49.208;5.364;2023-02-17T15:03:19;100409.81;;;11.29;100.00
48027;BME280;50714;49.208;5.364;2023-02-17T15:13:20;100409.16;;;11.27;100.00
48027;BME280;50714;49.208;5.364;2023-02-17T15:23:22;100406.47;;;11.27;100.00
48027;BME280;50714;49.208;5.364;2023-02-17T15:33:24;100414.09;;;11.23;100.00
48027;BME280;50714;49.208;5.364;2023-02-17T15:43:32;100408.69;;;11.23;100.00
48027;BME280;50714;49.208;5.364;2023-02-17T15:53:33;100420.22;;;11.17;100.00
48027;BME280;50714;49.208;5.364;2023-02-17T16:03:34;100420.41;;;11.16;100.00
48027;BME280;50714;49.208;5.364;2023-02-17T16:13:34;100413.97;;;11.17;100.00
48027;BME280;50714;49.208;5.364;2023-02-17T16:23:34;100395.72;;;11.19;100.00
48027;BME280;50714;49.208;5.364;2023-02-17T16:33:36;100403.00;;;11.18;100.00
48027;BME280;50714;49.208;5.364;2023-02-17T16:43:36;100422.19;;;11.23;100.00
48027;BME280;50714;49.208;5.364;2023-02-17T16:53:36;100421.16;;;11.24;100.00
48027;BME280;50714;49.208;5.364;2023-02-17T17:03:38;100416.59;;;11.25;100.00
48027;BME280;50714;49.208;5.364;2023-02-17T17:13:39;100426.22;;;11.27;100.00
48027;BME280;50714;49.208;5.364;2023-02-17T17:23:39;100431.13;;;11.24;100.00
48027;BME280;50714;49.208;5.364;2023-02-17T17:33:40;100448.84;;;11.26;100.00
48027;BME280;50714;49.208;5.364;2023-02-17T17:43:41;100451.56;;;11.26;100.00
48027;BME280;50714;49.208;5.364;2023-02-17T17:53:42;100467.03;;;11.33;100.00
48027;BME280;50714;49.208;5.364;2023-02-17T18:03:42;100473.81;;;11.28;100.00
48027;BME280;50714;49.208;5.364;2023-02-17T18:13:45;100486.78;;;11.33;100.00
48027;BME280;50714;49.208;5.364;2023-02-17T18:23:46;100495.53;;;11.35;100.00
48027;BME280;50714;49.208;5.364;2023-02-17T18:33:47;100490.78;;;11.37;100.00
48027;BME280;50714;49.208;5.364;2023-02-17T18:43:48;100488.06;;;11.37;100.00
48027;BME280;50714;49.208;5.364;2023-02-17T18:53:51;100504.13;;;11.39;100.00
48027;BME280;50714;49.208;5.364;2023-02-17T19:03:52;100505.31;;;11.36;100.00
48027;BME280;50714;49.208;5.364;2023-02-17T19:13:52;100519.59;;;11.45;100.00
48027;BME280;50714;49.208;5.364;2023-02-17T19:23:53;100533.31;;;11.43;100.00
48027;BME280;50714;49.208;5.364;2023-02-17T19:33:53;100545.44;;;11.47;100.00
48027;BME280;50714;49.208;5.364;2023-02-17T19:43:54;100543.09;;;11.44;100.00
48027;BME280;50714;49.208;5.364;2023-02-17T19:53:59;100554.19;;;11.49;100.00
48027;BME280;50714;49.208;5.364;2023-02-17T20:04:02;100552.16;;;11.51;100.00
48027;BME280;50714;49.208;5.364;2023-02-17T20:14:03;100558.22;;;11.53;100.00
48027;BME280;50714;49.208;5.364;2023-02-17T20:24:03;100559.25;;;11.52;100.00
48027;BME280;50714;49.208;5.364;2023-02-17T20:34:06;100570.31;;;11.57;100.00
48027;BME280;50714;49.208;5.364;2023-02-17T20:44:06;100569.13;;;11.60;100.00
48027;BME280;50714;49.208;5.364;2023-02-17T20:54:07;100582.63;;;11.60;100.00
48027;BME280;50714;49.208;5.364;2023-02-17T21:04:08;100573.50;;;11.61;100.00
48027;BME280;50714;49.208;5.364;2023-02-17T21:14:08;100574.91;;;11.57;100.00
48027;BME280;50714;49.208;5.364;2023-02-17T21:24:09;100569.69;;;11.55;100.00
48027;BME280;50714;49.208;5.364;2023-02-17T21:34:09;100573.78;;;11.51;100.00
48027;BME280;50714;49.208;5.364;2023-02-17T21:44:11;100573.13;;;11.49;100.00
48027;BME280;50714;49.208;5.364;2023-02-17T21:54:30;100580.09;;;11.44;100.00
48027;BME280;50714;49.208;5.364;2023-02-17T22:04:30;100576.72;;;11.42;100.00
48027;BME280;50714;49.208;5.364;2023-02-17T22:14:30;100573.53;;;11.38;100.00
48027;BME280;50714;49.208;5.364;2023-02-17T22:24:31;100578.47;;;11.35;100.00
48027;BME280;50714;49.208;5.364;2023-02-17T22:34:31;100590.22;;;11.27;100.00
48027;BME280;50714;49.208;5.364;2023-02-17T22:44:31;100571.53;;;11.17;100.00
48027;BME280;50714;49.208;5.364;2023-02-17T22:54:32;100570.78;;;11.09;100.00
48027;BME280;50714;49.208;5.364;2023-02-17T23:04:32;100559.97;;;11.09;100.00
48027;BME280;50714;49.208;5.364;2023-02-17T23:14:37;100560.13;;;11.07;100.00
48027;BME280;50714;49.208;5.364;2023-02-17T23:24:38;100568.06;;;11.09;100.00
48027;BME280;50714;49.208;5.364;2023-02-17T23:34:38;100560.31;;;11.06;100.00
48027;BME280;50714;49.208;5.364;2023-02-17T23:44:39;100553.06;;;11.06;100.00
48027;BME280;50714;49.208;5.364;2023-02-17T23:54:39;100557.31;;;11.01;100.00
